Time;durP1;ratioP1;P1;durP2;ratioP2;P2;SDS_P1;SDS_P2;PMS_P1;PMS_P2;Temp;Humidity;BMP_temperature;BMP_pressure;BME280_temperature;BME280_humidity;BME280_pressure;Samples;Min_cycle;Max_cycle;Signal;HPM_P1;HPM_P2
2021/03/17 00:01:29;;;;;;;39.00;20.00;;;;;;;;;;8226227;28;20356;-70
2021/03/17 00:06:00;;;;;;;41.03;21.35;;;;;;;;;;8223807;28;20478;-70
2021/03/17 00:10:25;;;;;;;35.25;19.33;;;;;;;;;;8224670;28;20369;-71
2021/03/17 00:14:49;;;;;;;41.47;21.80;;;;;;;;;;8225461;28;20468;-70
2021/03/17 00:19:12;;;;;;;32.08;17.17;;;;;;;;;;8224781;28;20381;-70
2021/03/17 00:23:36;;;;;;;75.32;28.42;;;;;;;;;;8225497;28;20507;-70
2021/03/17 00:28:01;;;;;;;40.83;19.13;;;;;;;;;;8226310;28;20432;-71
2021/03/17 00:32:25;;;;;;;42.25;21.85;;;;;;;;;;8224550;28;20448;-70
2021/03/17 00:36:48;;;;;;;40.58;20.33;;;;;;;;;;8225549;28;20460;-70
2021/03/17 00:41:12;;;;;;;34.60;19.13;;;;;;;;;;8223949;28;20448;-71
2021/03/17 00:45:36;;;;;;;40.30;19.90;;;;;;;;;;8224819;28;20369;-71
2021/03/17 00:49:49;;;;;;;33.35;19.45;;;;;;;;;;8224059;28;20475;-70
2021/03/17 00:53:58;;;;;;;32.30;18.27;;;;;;;;;;8240478;28;20337;-71
2021/03/17 00:58:03;;;;;;;32.63;18.65;;;;;;;;;;8226221;28;20506;-70
2021/03/17 01:02:08;;;;;;;37.50;20.00;;;;;;;;;;8228488;28;20380;-70
2021/03/17 01:06:13;;;;;;;36.42;20.05;;;;;;;;;;8255273;28;20506;-70
2021/03/17 01:10:52;;;;;;;38.97;21.38;;;;;;;;;;8256701;28;20049;-69
2021/03/17 01:14:57;;;;;;;40.47;20.13;;;;;;;;;;8255815;28;20368;-70
2021/03/17 01:19:01;;;;;;;39.10;21.85;;;;;;;;;;8257857;28;20448;-70
2021/03/17 01:23:06;;;;;;;35.95;21.15;;;;;;;;;;8258541;28;20471;-70
2021/03/17 01:27:11;;;;;;;36.15;20.98;;;;;;;;;;8256257;28;20475;-70
2021/03/17 01:31:16;;;;;;;37.55;20.23;;;;;;;;;;8260471;28;20056;-70
2021/03/17 01:35:21;;;;;;;35.55;19.98;;;;;;;;;;8265565;28;20056;-70
2021/03/17 01:39:26;;;;;;;39.63;21.38;;;;;;;;;;8262402;28;20459;-71
2021/03/17 01:43:30;;;;;;;38.95;21.33;;;;;;;;;;8262538;28;20460;-71
2021/03/17 01:47:35;;;;;;;37.55;21.05;;;;;;;;;;8262722;28;20353;-71
2021/03/17 01:51:39;;;;;;;41.17;21.90;;;;;;;;;;8262868;28;20475;-69
2021/03/17 01:55:47;;;;;;;37.63;21.73;;;;;;;;;;8261839;28;20471;-70
2021/03/17 01:59:52;;;;;;;38.20;20.45;;;;;;;;;;8261978;28;20471;-70
2021/03/17 02:03:56;;;;;;;37.92;22.00;;;;;;;;;;8263744;28;20581;-69
2021/03/17 02:08:05;;;;;;;42.28;21.42;;;;;;;;;;8262455;28;20468;-70
2021/03/17 02:12:21;;;;;;;38.97;21.20;;;;;;;;;;8263296;28;20493;-69
2021/03/17 02:16:39;;;;;;;39.80;21.20;;;;;;;;;;8261674;28;20053;-70
2021/03/17 02:21:14;;;;;;;42.05;21.13;;;;;;;;;;8260532;28;20375;-71
2021/03/17 02:26:14;;;;;;;42.60;23.15;;;;;;;;;;8261367;28;20468;-71
2021/03/17 02:30:35;;;;;;;39.80;21.98;;;;;;;;;;8261861;28;20048;-71
2021/03/17 02:34:48;;;;;;;41.35;21.20;;;;;;;;;;8261369;28;20472;-71
2021/03/17 02:39:07;;;;;;;40.50;21.40;;;;;;;;;;8261504;28;20463;-71
2021/03/17 02:43:18;;;;;;;40.47;21.92;;;;;;;;;;8258389;28;20392;-70
2021/03/17 02:47:27;;;;;;;44.92;22.90;;;;;;;;;;8259725;28;20479;-71
2021/03/17 02:51:42;;;;;;;43.63;23.63;;;;;;;;;;8259899;28;20456;-70
2021/03/17 02:55:56;;;;;;;40.53;22.92;;;;;;;;;;8261749;28;20455;-70
2021/03/17 03:00:09;;;;;;;40.88;21.83;;;;;;;;;;8259418;28;20361;-70
2021/03/17 03:04:15;;;;;;;48.63;23.17;;;;;;;;;;8260260;28;20459;-70
2021/03/17 03:08:20;;;;;;;44.28;22.08;;;;;;;;;;8263733;28;20376;-71
2021/03/17 03:12:25;;;;;;;44.83;22.75;;;;;;;;;;8259234;28;20535;-70
2021/03/17 03:16:31;;;;;;;46.10;23.58;;;;;;;;;;8258561;28;20369;-70
2021/03/17 03:20:41;;;;;;;42.50;23.45;;;;;;;;;;8259984;28;20468;-70
2021/03/17 03:24:46;;;;;;;46.90;23.98;;;;;;;;;;8260881;28;20472;-70
2021/03/17 03:28:53;;;;;;;45.88;22.38;;;;;;;;;;8258887;28;20049;-71
2021/03/17 03:32:56;;;;;;;40.55;21.95;;;;;;;;;;8260199;28;20374;-70
2021/03/17 03:37:01;;;;;;;42.72;23.17;;;;;;;;;;8257886;28;20471;-71
2021/03/17 03:41:05;;;;;;;39.58;20.98;;;;;;;;;;8259321;28;20075;-70
2021/03/17 03:45:16;;;;;;;42.08;23.55;;;;;;;;;;8259373;28;20361;-70
2021/03/17 03:49:23;;;;;;;45.15;22.20;;;;;;;;;;8260095;28;20359;-70
2021/03/17 03:53:49;;;;;;;39.70;21.88;;;;;;;;;;8258231;28;20064;-70
2021/03/17 03:57:55;;;;;;;40.67;20.88;;;;;;;;;;8261339;28;20351;-69
2021/03/17 04:02:01;;;;;;;40.53;21.52;;;;;;;;;;8257637;28;20372;-71
2021/03/17 04:06:06;;;;;;;38.05;20.73;;;;;;;;;;8240785;28;20498;-70
2021/03/17 04:10:13;;;;;;;37.72;19.45;;;;;;;;;;8257383;28;20455;-70
2021/03/17 04:14:19;;;;;;;38.33;19.50;;;;;;;;;;8260222;28;20049;-70
2021/03/17 04:18:42;;;;;;;37.00;20.10;;;;;;;;;;8258662;28;20654;-70
2021/03/17 04:22:49;;;;;;;31.10;17.73;;;;;;;;;;8258624;28;20411;-70
2021/03/17 04:26:54;;;;;;;34.28;18.17;;;;;;;;;;8240526;28;20468;-69
2021/03/17 04:31:01;;;;;;;38.92;19.58;;;;;;;;;;8255950;28;20057;-70
2021/03/17 04:35:07;;;;;;;34.05;18.08;;;;;;;;;;8256010;28;20352;-69
2021/03/17 04:39:12;;;;;;;33.03;18.17;;;;;;;;;;8256736;28;20459;-69
2021/03/17 04:43:17;;;;;;;36.85;19.35;;;;;;;;;;8254841;28;20407;-69
2021/03/17 04:47:24;;;;;;;31.85;17.95;;;;;;;;;;8257713;28;20480;-70
2021/03/17 04:51:28;;;;;;;31.58;17.70;;;;;;;;;;8256397;28;20489;-69
2021/03/17 04:55:33;;;;;;;45.72;22.50;;;;;;;;;;8258045;28;20391;-69
2021/03/17 04:59:40;;;;;;;36.70;19.42;;;;;;;;;;8255735;28;20440;-69
2021/03/17 05:03:47;;;;;;;41.35;22.17;;;;;;;;;;8256745;28;20400;-70
2021/03/17 05:07:53;;;;;;;34.30;18.00;;;;;;;;;;8257608;28;20470;-69
2021/03/17 05:12:00;;;;;;;33.50;17.50;;;;;;;;;;8255078;28;20484;-69
2021/03/17 05:16:06;;;;;;;41.92;22.48;;;;;;;;;;8256263;28;20076;-69
2021/03/17 05:20:15;;;;;;;40.58;24.25;;;;;;;;;;8256361;28;20084;-69
2021/03/17 05:24:20;;;;;;;31.60;17.98;;;;;;;;;;8258489;28;20053;-70
2021/03/17 05:28:26;;;;;;;41.38;22.88;;;;;;;;;;8255090;28;20057;-70
2021/03/17 05:32:29;;;;;;;30.85;16.30;;;;;;;;;;8254778;28;20510;-71
2021/03/17 05:36:34;;;;;;;34.67;18.92;;;;;;;;;;8257103;28;20384;-68
2021/03/17 05:40:38;;;;;;;52.85;25.65;;;;;;;;;;8255182;28;20361;-69
2021/03/17 05:44:43;;;;;;;35.53;18.67;;;;;;;;;;8257901;28;20460;-69
2021/03/17 05:48:49;;;;;;;32.97;17.55;;;;;;;;;;8256003;28;20456;-69
2021/03/17 05:52:54;;;;;;;28.40;16.40;;;;;;;;;;8255484;28;20072;-70
2021/03/17 05:57:00;;;;;;;33.08;17.33;;;;;;;;;;8256521;28;20174;-69
2021/03/17 06:01:04;;;;;;;31.63;16.33;;;;;;;;;;8255366;28;20464;-69
2021/03/17 06:05:11;;;;;;;27.73;12.57;;;;;;;;;;8256350;28;20467;-70
2021/03/17 06:09:17;;;;;;;26.67;13.55;;;;;;;;;;8256437;28;20375;-69
2021/03/17 06:13:26;;;;;;;30.75;15.88;;;;;;;;;;8254840;28;21149;-71
2021/03/17 06:17:33;;;;;;;29.58;14.75;;;;;;;;;;8259044;28;20384;-72
2021/03/17 06:21:38;;;;;;;26.20;14.35;;;;;;;;;;8260209;28;20364;-71
2021/03/17 06:25:43;;;;;;;27.50;15.45;;;;;;;;;;8260654;28;20464;-70
2021/03/17 06:29:48;;;;;;;32.85;17.23;;;;;;;;;;8260500;28;20372;-71
2021/03/17 06:33:54;;;;;;;35.33;17.52;;;;;;;;;;8261936;28;20506;-70
2021/03/17 06:37:59;;;;;;;33.17;16.15;;;;;;;;;;8261259;28;20375;-71
2021/03/17 06:42:02;;;;;;;34.85;16.90;;;;;;;;;;8261767;28;20356;-70
2021/03/17 06:46:09;;;;;;;27.23;15.88;;;;;;;;;;8259690;28;20418;-70
2021/03/17 06:50:31;;;;;;;25.27;14.73;;;;;;;;;;8260405;28;20064;-71
2021/03/17 06:54:35;;;;;;;25.55;13.85;;;;;;;;;;8261954;28;20052;-71
2021/03/17 06:58:42;;;;;;;27.10;14.38;;;;;;;;;;8261537;28;20491;-71
2021/03/17 07:02:57;;;;;;;23.00;12.80;;;;;;;;;;8260049;28;20049;-71
2021/03/17 07:07:05;;;;;;;25.50;13.63;;;;;;;;;;8257988;28;20505;-71
2021/03/17 07:11:12;;;;;;;28.35;13.85;;;;;;;;;;8217801;28;20375;-70
2021/03/17 07:15:15;;;;;;;26.58;11.35;;;;;;;;;;8235901;28;20045;-71
2021/03/17 07:19:41;;;;;;;25.73;13.55;;;;;;;;;;8259505;28;20509;-71
2021/03/17 07:24:24;;;;;;;24.25;13.02;;;;;;;;;;8242633;28;20456;-72
2021/03/17 07:28:28;;;;;;;23.73;12.05;;;;;;;;;;8257801;28;20074;-70
2021/03/17 07:33:03;;;;;;;18.55;11.35;;;;;;;;;;8258903;28;20482;-71
2021/03/17 07:37:09;;;;;;;23.48;13.13;;;;;;;;;;8259825;28;20359;-70
2021/03/17 07:41:12;;;;;;;33.95;16.73;;;;;;;;;;8258007;28;20383;-71
2021/03/17 07:45:16;;;;;;;26.13;13.68;;;;;;;;;;8257231;28;20372;-72
2021/03/17 07:49:19;;;;;;;23.30;12.48;;;;;;;;;;8260032;28;20361;-71
2021/03/17 07:53:28;;;;;;;22.50;12.07;;;;;;;;;;8256367;28;20375;-70
2021/03/17 07:57:32;;;;;;;19.77;11.48;;;;;;;;;;8257233;28;20384;-71
2021/03/17 08:01:39;;;;;;;22.23;12.25;;;;;;;;;;8259156;28;20475;-70
2021/03/17 08:05:43;;;;;;;21.60;11.82;;;;;;;;;;8256835;28;20045;-70
2021/03/17 08:09:49;;;;;;;21.02;12.10;;;;;;;;;;8258267;28;20506;-70
2021/03/17 08:13:54;;;;;;;26.58;12.68;;;;;;;;;;8256983;28;20444;-70
2021/03/17 08:17:59;;;;;;;22.73;13.07;;;;;;;;;;8256797;28;20494;-70
2021/03/17 08:22:07;;;;;;;23.25;11.07;;;;;;;;;;8257800;28;20395;-71
2021/03/17 08:26:33;;;;;;;20.73;10.37;;;;;;;;;;8241285;28;20379;-70
2021/03/17 08:30:38;;;;;;;21.38;11.80;;;;;;;;;;8258279;28;20067;-70
2021/03/17 08:34:55;;;;;;;22.75;11.80;;;;;;;;;;8257525;28;20041;-70
2021/03/17 08:38:59;;;;;;;18.83;9.90;;;;;;;;;;8257750;28;20483;-70
2021/03/17 08:43:30;;;;;;;24.65;12.43;;;;;;;;;;8257051;28;20493;-71
2021/03/17 08:47:46;;;;;;;28.88;13.65;;;;;;;;;;8256962;28;20057;-71
2021/03/17 08:51:59;;;;;;;18.98;9.82;;;;;;;;;;8256874;28;20467;-70
2021/03/17 08:56:03;;;;;;;21.35;9.70;;;;;;;;;;8255424;28;20057;-70
2021/03/17 09:00:09;;;;;;;18.55;9.98;;;;;;;;;;8258654;28;20045;-71
2021/03/17 09:04:50;;;;;;;23.02;12.35;;;;;;;;;;8271995;28;20041;-71
2021/03/17 09:08:59;;;;;;;36.50;14.75;;;;;;;;;;8257228;28;20456;-70
2021/03/17 09:13:02;;;;;;;23.40;11.07;;;;;;;;;;8256835;28;20459;-70
2021/03/17 09:17:27;;;;;;;23.85;10.18;;;;;;;;;;8256030;28;20488;-70
2021/03/17 09:21:46;;;;;;;18.77;10.13;;;;;;;;;;8258286;28;20439;-70
2021/03/17 09:26:07;;;;;;;21.38;11.25;;;;;;;;;;8257256;28;20456;-70
2021/03/17 09:30:14;;;;;;;25.38;11.55;;;;;;;;;;8258196;28;20440;-70
2021/03/17 09:34:27;;;;;;;17.42;9.55;;;;;;;;;;8256659;28;20071;-70
2021/03/17 09:38:36;;;;;;;16.85;10.88;;;;;;;;;;8256592;28;20383;-70
2021/03/17 09:42:40;;;;;;;;;;;;;;;;;;8256309;28;20483;-71
2021/03/17 09:46:46;;;;;;;18.38;10.88;;;;;;;;;;8255212;28;20336;-70
2021/03/17 09:50:57;;;;;;;17.58;10.15;;;;;;;;;;8260605;28;20057;-70
2021/03/17 09:55:02;;;;;;;19.55;10.38;;;;;;;;;;8262957;28;20364;-70
2021/03/17 09:59:34;;;;;;;20.17;10.57;;;;;;;;;;8262329;28;20379;-71
2021/03/17 10:03:45;;;;;;;23.63;11.85;;;;;;;;;;8262915;28;20048;-71
2021/03/17 10:07:51;;;;;;;15.10;8.18;;;;;;;;;;8262369;28;20345;-70
2021/03/17 10:12:09;;;;;;;20.48;8.25;;;;;;;;;;8263244;28;20478;-71
2021/03/17 10:16:14;;;;;;;41.35;18.25;;;;;;;;;;8263100;28;20448;-70
2021/03/17 10:20:22;;;;;;;16.33;9.30;;;;;;;;;;8263872;28;20158;-71
2021/03/17 10:24:36;;;;;;;19.65;10.90;;;;;;;;;;8262123;28;20355;-70
2021/03/17 10:28:41;;;;;;;16.20;9.35;;;;;;;;;;8261570;28;20072;-70
2021/03/17 10:32:48;;;;;;;19.23;8.95;;;;;;;;;;8276977;28;20391;-71
2021/03/17 10:36:56;;;;;;;50.17;16.15;;;;;;;;;;8275705;28;20521;-71
2021/03/17 10:41:02;;;;;;;16.52;7.68;;;;;;;;;;8259423;28;20392;-71
2021/03/17 10:45:08;;;;;;;14.07;7.10;;;;;;;;;;8260841;28;20399;-71
2021/03/17 10:49:14;;;;;;;13.68;6.85;;;;;;;;;;8261325;28;20494;-70
2021/03/17 10:53:20;;;;;;;13.75;7.60;;;;;;;;;;8259002;28;20452;-70
2021/03/17 10:57:25;;;;;;;14.40;8.63;;;;;;;;;;8274447;28;20446;-70
2021/03/17 11:01:31;;;;;;;18.17;8.07;;;;;;;;;;8259776;28;20053;-71
2021/03/17 11:05:36;;;;;;;14.40;7.45;;;;;;;;;;8260590;28;20711;-70
2021/03/17 11:09:40;;;;;;;14.57;7.38;;;;;;;;;;8253909;28;20065;-71
2021/03/17 11:13:49;;;;;;;23.13;10.55;;;;;;;;;;8261499;28;20467;-69
2021/03/17 11:17:56;;;;;;;16.05;7.97;;;;;;;;;;8260072;28;20106;-70
2021/03/17 11:22:00;;;;;;;19.58;8.77;;;;;;;;;;8259785;28;20380;-70
2021/03/17 11:26:22;;;;;;;27.35;12.40;;;;;;;;;;8262892;28;20053;-71
2021/03/17 11:31:03;;;;;;;18.35;8.60;;;;;;;;;;8260423;28;20345;-70
2021/03/17 11:35:11;;;;;;;21.70;10.70;;;;;;;;;;8259691;28;20056;-71
2021/03/17 11:39:17;;;;;;;22.05;9.98;;;;;;;;;;8260228;28;20414;-70
2021/03/17 11:43:30;;;;;;;41.45;14.52;;;;;;;;;;8257902;28;20476;-70
2021/03/17 11:47:34;;;;;;;80.43;26.17;;;;;;;;;;8261001;28;20471;-71
2021/03/17 11:51:39;;;;;;;20.27;10.90;;;;;;;;;;8260335;28;20360;-70
2021/03/17 11:55:44;;;;;;;51.58;29.17;;;;;;;;;;8261283;28;20333;-70
2021/03/17 11:59:49;;;;;;;28.48;12.70;;;;;;;;;;8259269;28;20037;-70
2021/03/17 12:03:54;;;;;;;26.00;11.75;;;;;;;;;;8261400;28;20044;-69
2021/03/17 12:07:59;;;;;;;46.67;14.80;;;;;;;;;;8261052;28;20364;-72
2021/03/17 12:12:03;;;;;;;18.95;9.60;;;;;;;;;;8258230;28;20049;-71
2021/03/17 12:16:08;;;;;;;26.33;9.60;;;;;;;;;;8274689;28;20090;-70
2021/03/17 12:20:15;;;;;;;58.53;15.80;;;;;;;;;;8274508;28;20491;-70
2021/03/17 12:24:20;;;;;;;20.15;8.70;;;;;;;;;;8259792;28;20053;-70
2021/03/17 12:28:24;;;;;;;17.08;8.82;;;;;;;;;;8259900;28;20052;-71
2021/03/17 12:32:29;;;;;;;13.60;6.07;;;;;;;;;;8259479;28;20374;-71
2021/03/17 12:36:34;;;;;;;10.68;5.28;;;;;;;;;;8274370;28;20057;-70
2021/03/17 12:40:38;;;;;;;43.50;11.32;;;;;;;;;;8273595;28;20494;-70
2021/03/17 12:44:42;;;;;;;40.08;9.93;;;;;;;;;;8260893;28;20731;-70
2021/03/17 12:48:48;;;;;;;14.57;8.43;;;;;;;;;;8259753;28;20449;-70
2021/03/17 12:52:54;;;;;;;9.55;5.63;;;;;;;;;;8274698;28;20074;-70
2021/03/17 12:56:58;;;;;;;14.05;6.00;;;;;;;;;;8258175;28;20345;-70
2021/03/17 13:01:03;;;;;;;10.07;6.10;;;;;;;;;;8257534;28;20383;-70
2021/03/17 13:05:10;;;;;;;11.30;5.97;;;;;;;;;;8257847;28;20464;-70
2021/03/17 13:09:16;;;;;;;13.35;6.10;;;;;;;;;;8258749;28;20064;-70
2021/03/17 13:13:21;;;;;;;14.77;7.03;;;;;;;;;;8258887;28;20456;-70
2021/03/17 13:17:26;;;;;;;15.45;9.48;;;;;;;;;;8258418;28;20478;-71
2021/03/17 13:21:31;;;;;;;12.40;5.93;;;;;;;;;;8272705;28;20418;-71
2021/03/17 13:25:35;;;;;;;13.57;6.93;;;;;;;;;;8273603;28;20082;-70
2021/03/17 13:29:42;;;;;;;13.20;6.45;;;;;;;;;;8266104;28;20600;-70
2021/03/17 13:33:47;;;;;;;15.95;8.38;;;;;;;;;;8264371;28;20383;-71
2021/03/17 13:37:54;;;;;;;20.63;6.93;;;;;;;;;;8265255;28;20492;-71
2021/03/17 13:42:00;;;;;;;19.73;10.05;;;;;;;;;;8264377;28;20506;-70
2021/03/17 13:46:07;;;;;;;14.63;7.20;;;;;;;;;;8264058;28;20383;-70
2021/03/17 13:50:14;;;;;;;15.82;7.63;;;;;;;;;;8278167;28;20398;-70
2021/03/17 13:54:21;;;;;;;122.53;40.05;;;;;;;;;;8262652;28;20053;-69
2021/03/17 13:58:26;;;;;;;34.90;12.80;;;;;;;;;;8263691;28;20376;-70
2021/03/17 14:02:35;;;;;;;10.20;6.65;;;;;;;;;;8263048;28;20368;-70
2021/03/17 14:06:40;;;;;;;26.00;9.38;;;;;;;;;;8263213;28;20057;-70
2021/03/17 14:10:46;;;;;;;35.58;10.77;;;;;;;;;;8277559;28;20406;-70
2021/03/17 14:14:49;;;;;;;15.30;6.97;;;;;;;;;;8263256;28;20348;-70
2021/03/17 14:18:55;;;;;;;73.85;17.17;;;;;;;;;;8260883;28;20376;-73
2021/03/17 14:23:01;;;;;;;8.75;5.78;;;;;;;;;;8263786;28;20371;-72
2021/03/17 14:27:06;;;;;;;11.68;6.82;;;;;;;;;;8261574;28;20345;-70
2021/03/17 14:31:11;;;;;;;37.55;10.05;;;;;;;;;;8277885;28;20049;-72
2021/03/17 14:35:16;;;;;;;15.63;7.38;;;;;;;;;;8261615;28;20383;-70
2021/03/17 14:39:20;;;;;;;15.35;8.63;;;;;;;;;;8259715;28;20451;-71
2021/03/17 14:43:25;;;;;;;21.73;9.13;;;;;;;;;;8260303;28;20460;-70
2021/03/17 14:47:29;;;;;;;19.20;10.48;;;;;;;;;;8276425;28;20456;-71
2021/03/17 14:51:35;;;;;;;32.70;10.65;;;;;;;;;;8261672;28;20356;-70
2021/03/17 14:55:38;;;;;;;14.52;8.00;;;;;;;;;;8258143;28;20387;-71
2021/03/17 14:59:41;;;;;;;13.45;7.78;;;;;;;;;;8259418;28;20041;-70
2021/03/17 15:03:48;;;;;;;19.73;10.85;;;;;;;;;;8261124;28;20497;-71
2021/03/17 15:07:51;;;;;;;19.92;9.90;;;;;;;;;;8260236;28;20451;-71
2021/03/17 15:11:56;;;;;;;16.15;8.13;;;;;;;;;;8258102;28;20474;-70
2021/03/17 15:16:00;;;;;;;11.93;7.13;;;;;;;;;;8260285;28;20436;-70
2021/03/17 15:20:15;;;;;;;13.38;6.30;;;;;;;;;;8275824;28;20057;-71
2021/03/17 15:24:19;;;;;;;17.58;7.28;;;;;;;;;;8261010;28;20375;-70
2021/03/17 15:28:23;;;;;;;13.23;6.85;;;;;;;;;;8259127;28;20419;-71
2021/03/17 15:32:27;;;;;;;15.55;6.65;;;;;;;;;;8274661;28;20475;-71
2021/03/17 15:36:32;;;;;;;13.48;7.80;;;;;;;;;;8262632;28;20490;-71
2021/03/17 15:40:37;;;;;;;10.40;6.28;;;;;;;;;;8259981;28;20379;-71
2021/03/17 15:44:41;;;;;;;19.35;7.40;;;;;;;;;;8258710;28;20404;-72
2021/03/17 15:48:44;;;;;;;17.50;8.38;;;;;;;;;;8258477;28;20067;-70
2021/03/17 15:52:49;;;;;;;36.70;11.88;;;;;;;;;;8259355;28;20476;-70
2021/03/17 15:56:54;;;;;;;18.60;9.27;;;;;;;;;;8256840;28;20375;-70
2021/03/17 16:01:17;;;;;;;23.15;10.98;;;;;;;;;;8257132;28;20383;-70
2021/03/17 16:05:21;;;;;;;24.60;13.77;;;;;;;;;;8260607;28;20501;-70
2021/03/17 16:09:26;;;;;;;35.53;14.82;;;;;;;;;;8258655;28;20451;-70
2021/03/17 16:13:30;;;;;;;40.72;17.83;;;;;;;;;;8260360;28;20334;-70
2021/03/17 16:17:36;;;;;;;47.25;17.15;;;;;;;;;;8258869;28;20403;-71
2021/03/17 16:21:39;;;;;;;35.75;14.07;;;;;;;;;;8256258;28;20087;-71
2021/03/17 16:25:43;;;;;;;22.92;8.95;;;;;;;;;;8256671;28;20407;-70
2021/03/17 16:29:48;;;;;;;29.05;13.10;;;;;;;;;;8259269;28;20071;-71
2021/03/17 16:33:52;;;;;;;36.72;15.52;;;;;;;;;;8256384;28;20448;-71
2021/03/17 16:37:57;;;;;;;59.85;19.80;;;;;;;;;;8256479;28;20364;-71
2021/03/17 16:42:04;;;;;;;73.07;26.63;;;;;;;;;;8255472;28;20375;-70
2021/03/17 16:46:08;;;;;;;55.60;21.52;;;;;;;;;;8258401;28;20539;-70
2021/03/17 16:50:13;;;;;;;24.98;9.88;;;;;;;;;;8258443;28;20493;-71
2021/03/17 16:54:17;;;;;;;53.80;17.25;;;;;;;;;;8256683;28;20463;-70
2021/03/17 16:58:25;;;;;;;37.73;14.63;;;;;;;;;;8259092;28;20360;-70
2021/03/17 17:02:32;;;;;;;45.60;17.60;;;;;;;;;;8256972;28;20489;-70
2021/03/17 17:06:37;;;;;;;31.60;12.50;;;;;;;;;;8256378;28;20582;-71
2021/03/17 17:10:41;;;;;;;37.85;14.40;;;;;;;;;;8257796;28;20506;-72
2021/03/17 17:14:46;;;;;;;46.05;17.58;;;;;;;;;;8259415;28;20352;-70
2021/03/17 17:18:50;;;;;;;34.55;13.15;;;;;;;;;;8260035;28;20491;-70
2021/03/17 17:22:55;;;;;;;40.28;17.15;;;;;;;;;;8260735;28;20351;-70
2021/03/17 17:27:01;;;;;;;44.58;18.40;;;;;;;;;;8259966;28;20474;-70
2021/03/17 17:31:06;;;;;;;24.95;12.57;;;;;;;;;;8259393;28;20049;-70
2021/03/17 17:35:11;;;;;;;29.67;12.75;;;;;;;;;;8259788;28;20467;-70
2021/03/17 17:39:24;;;;;;;39.47;15.43;;;;;;;;;;8259318;28;20413;-71
2021/03/17 17:43:29;;;;;;;27.20;12.15;;;;;;;;;;8258073;28;20356;-71
2021/03/17 17:47:35;;;;;;;34.85;14.77;;;;;;;;;;8258426;28;20379;-70
2021/03/17 17:51:41;;;;;;;30.00;11.50;;;;;;;;;;8257134;28;20452;-70
2021/03/17 17:55:45;;;;;;;49.47;20.63;;;;;;;;;;8258854;28;20436;-72
2021/03/17 17:59:49;;;;;;;60.90;23.08;;;;;;;;;;8257827;28;20460;-70
2021/03/17 18:03:56;;;;;;;47.42;20.75;;;;;;;;;;8256719;28;20390;-70
2021/03/17 18:08:02;;;;;;;60.85;26.00;;;;;;;;;;8256908;28;20418;-71
2021/03/17 18:12:07;;;;;;;35.05;15.73;;;;;;;;;;8259390;28;20057;-70
2021/03/17 18:16:12;;;;;;;65.95;28.33;;;;;;;;;;8265212;28;20398;-71
2021/03/17 18:20:23;;;;;;;37.72;18.25;;;;;;;;;;8263573;28;20352;-70
2021/03/17 18:24:28;;;;;;;32.28;13.82;;;;;;;;;;8264197;28;20374;-70
2021/03/17 18:28:32;;;;;;;40.92;15.07;;;;;;;;;;8277548;28;20359;-71
2021/03/17 18:32:37;;;;;;;28.40;13.80;;;;;;;;;;8262531;28;20379;-70
2021/03/17 18:36:43;;;;;;;39.22;18.75;;;;;;;;;;8265496;28;20381;-71
2021/03/17 18:40:47;;;;;;;24.67;11.60;;;;;;;;;;8261699;28;20435;-70
2021/03/17 18:44:52;;;;;;;41.60;16.58;;;;;;;;;;8264601;28;20332;-71
2021/03/17 18:48:59;;;;;;;29.33;13.88;;;;;;;;;;8264376;28;20340;-71
2021/03/17 18:53:07;;;;;;;35.83;16.98;;;;;;;;;;8264681;28;20100;-70
2021/03/17 18:57:12;;;;;;;33.80;14.02;;;;;;;;;;8261441;28;20456;-70
2021/03/17 19:01:15;;;;;;;31.95;13.50;;;;;;;;;;8262503;28;20411;-70
2021/03/17 19:05:21;;;;;;;23.85;11.90;;;;;;;;;;8260792;28;20387;-70
2021/03/17 19:09:27;;;;;;;21.33;9.00;;;;;;;;;;8260345;28;20041;-71
2021/03/17 19:13:33;;;;;;;27.63;10.45;;;;;;;;;;8242674;28;20061;-70
2021/03/17 19:17:39;;;;;;;26.08;10.95;;;;;;;;;;8260667;28;20068;-70
2021/03/17 19:21:44;;;;;;;22.05;9.07;;;;;;;;;;8261110;28;20346;-70
2021/03/17 19:25:51;;;;;;;17.35;8.02;;;;;;;;;;8259598;28;20045;-71
2021/03/17 19:30:34;;;;;;;24.60;9.82;;;;;;;;;;8270706;28;20053;-70
2021/03/17 19:34:41;;;;;;;28.67;10.40;;;;;;;;;;8258252;28;20376;-70
2021/03/17 19:38:46;;;;;;;37.17;15.70;;;;;;;;;;8243025;28;20359;-70
2021/03/17 19:42:53;;;;;;;45.53;19.00;;;;;;;;;;8241848;28;20448;-71
2021/03/17 19:47:00;;;;;;;42.45;17.90;;;;;;;;;;8257877;28;20068;-72
2021/03/17 19:51:14;;;;;;;47.10;17.77;;;;;;;;;;8257982;28;20406;-70
2021/03/17 19:55:40;;;;;;;56.05;19.75;;;;;;;;;;8259779;28;20448;-71
2021/03/17 20:00:24;;;;;;;38.38;15.60;;;;;;;;;;8259696;28;20458;-70
2021/03/17 20:04:50;;;;;;;37.67;15.05;;;;;;;;;;8258168;28;20364;-70
2021/03/17 20:08:55;;;;;;;42.95;16.40;;;;;;;;;;8256863;28;20444;-70
2021/03/17 20:12:59;;;;;;;42.97;15.90;;;;;;;;;;8256748;28;20490;-71
2021/03/17 20:17:25;;;;;;;27.10;11.38;;;;;;;;;;8258402;28;20391;-71
2021/03/17 20:21:31;;;;;;;30.52;10.65;;;;;;;;;;8257085;28;20060;-70
2021/03/17 20:25:37;;;;;;;23.38;9.73;;;;;;;;;;8240669;28;20448;-71
2021/03/17 20:29:47;;;;;;;19.13;8.57;;;;;;;;;;8258176;28;20468;-70
2021/03/17 20:33:55;;;;;;;19.65;9.20;;;;;;;;;;8258977;28;20448;-70
2021/03/17 20:38:01;;;;;;;27.60;11.02;;;;;;;;;;8272819;28;20491;-71
2021/03/17 20:42:07;;;;;;;61.75;18.70;;;;;;;;;;8255696;28;20071;-70
2021/03/17 20:46:11;;;;;;;26.85;10.63;;;;;;;;;;8272234;28;20353;-70
2021/03/17 20:50:20;;;;;;;20.10;8.25;;;;;;;;;;8256119;28;20443;-70
2021/03/17 20:54:30;;;;;;;34.28;12.63;;;;;;;;;;8272550;28;20368;-70
2021/03/17 20:58:37;;;;;;;47.22;17.15;;;;;;;;;;8255862;28;20491;-70
2021/03/17 21:02:42;;;;;;;52.17;16.33;;;;;;;;;;8257186;28;20482;-72
2021/03/17 21:06:48;;;;;;;31.92;12.73;;;;;;;;;;8257269;28;20041;-71
2021/03/17 21:11:06;;;;;;;22.30;8.50;;;;;;;;;;8255917;28;20460;-70
2021/03/17 21:15:14;;;;;;;18.48;7.95;;;;;;;;;;8256820;28;20468;-70
2021/03/17 21:19:22;;;;;;;23.52;9.95;;;;;;;;;;8274278;28;20436;-72
2021/03/17 21:23:31;;;;;;;21.55;7.60;;;;;;;;;;8256070;28;20440;-70
2021/03/17 21:27:36;;;;;;;17.38;7.45;;;;;;;;;;8258402;28;20346;-71
2021/03/17 21:31:53;;;;;;;15.73;7.68;;;;;;;;;;8256882;28;20463;-71
2021/03/17 21:36:17;;;;;;;11.57;6.20;;;;;;;;;;8259016;28;20067;-70
2021/03/17 21:40:28;;;;;;;23.55;10.25;;;;;;;;;;8257846;28;20402;-71
2021/03/17 21:44:33;;;;;;;47.47;14.32;;;;;;;;;;8255396;28;20371;-71
2021/03/17 21:48:38;;;;;;;50.83;15.48;;;;;;;;;;8260993;28;20061;-70
2021/03/17 21:52:42;;;;;;;19.95;9.80;;;;;;;;;;8262035;28;20367;-70
2021/03/17 21:56:50;;;;;;;28.45;12.00;;;;;;;;;;8265617;28;20470;-71
2021/03/17 22:00:56;;;;;;;20.83;10.30;;;;;;;;;;8262762;28;20471;-70
2021/03/17 22:05:03;;;;;;;33.30;12.07;;;;;;;;;;8263134;28;20367;-72
2021/03/17 22:09:07;;;;;;;29.15;10.45;;;;;;;;;;8261098;28;20485;-70
2021/03/17 22:13:12;;;;;;;27.40;11.23;;;;;;;;;;8246204;28;20463;-70
2021/03/17 22:17:17;;;;;;;31.67;13.73;;;;;;;;;;8261911;28;20352;-71
2021/03/17 22:21:24;;;;;;;19.35;10.07;;;;;;;;;;8260795;28;20372;-70
2021/03/17 22:25:30;;;;;;;36.90;14.18;;;;;;;;;;8261345;28;20372;-71
2021/03/17 22:29:34;;;;;;;23.80;9.50;;;;;;;;;;8262426;28;20473;-70
2021/03/17 22:33:39;;;;;;;26.92;11.15;;;;;;;;;;8259886;28;20355;-70
2021/03/17 22:37:44;;;;;;;28.75;10.85;;;;;;;;;;8261853;28;20110;-70
2021/03/17 22:41:49;;;;;;;21.27;8.35;;;;;;;;;;8259210;28;20472;-70
2021/03/17 22:45:55;;;;;;;19.00;10.98;;;;;;;;;;8261010;28;20348;-70
2021/03/17 22:49:59;;;;;;;17.55;8.07;;;;;;;;;;8261449;28;20455;-71
2021/03/17 22:54:04;;;;;;;18.02;7.57;;;;;;;;;;8275992;28;20463;-71
2021/03/17 22:58:11;;;;;;;19.63;7.60;;;;;;;;;;8274810;28;20477;-70
2021/03/17 23:02:26;;;;;;;;;;;;;;;;;;8262094;28;20378;-70
2021/03/17 23:06:31;;;;;;;20.15;8.45;;;;;;;;;;8260573;28;19942;-70
2021/03/17 23:11:07;;;;;;;16.70;6.10;;;;;;;;;;8262563;28;20375;-71
2021/03/17 23:15:12;;;;;;;13.50;6.38;;;;;;;;;;8259710;28;20381;-70
2021/03/17 23:19:24;;;;;;;12.80;5.47;;;;;;;;;;8259987;28;20472;-71
2021/03/17 23:23:33;;;;;;;10.57;5.90;;;;;;;;;;8258811;28;20363;-71
2021/03/17 23:27:49;;;;;;;10.13;5.15;;;;;;;;;;8258455;28;20451;-69
2021/03/17 23:31:54;;;;;;;13.85;5.72;;;;;;;;;;8258424;28;20056;-69
2021/03/17 23:36:10;;;;;;;10.15;5.30;;;;;;;;;;8273505;28;20500;-70
2021/03/17 23:40:39;;;;;;;12.73;6.25;;;;;;;;;;8260416;28;20355;-70
2021/03/17 23:44:43;;;;;;;16.80;6.47;;;;;;;;;;8257548;28;20460;-71
2021/03/17 23:48:50;;;;;;;12.67;4.77;;;;;;;;;;8244062;28;20472;-70
2021/03/17 23:52:55;;;;;;;15.63;6.03;;;;;;;;;;8258481;28;20362;-71
2021/03/17 23:57:00;;;;;;;13.88;5.00;;;;;;;;;;8257890;28;20367;-71
